createdAt,value
2022-09-20T00:01:54.826Z,8.60
2022-09-20T00:11:01.802Z,8.40
2022-09-20T00:14:06.238Z,8.40
2022-09-20T00:20:10.403Z,8.30
2022-09-20T00:23:12.259Z,8.40
2022-09-20T00:26:14.187Z,8.40
2022-09-20T00:29:16.032Z,8.50
2022-09-20T00:32:17.864Z,8.50
2022-09-20T00:35:19.726Z,8.50
2022-09-20T00:44:45.203Z,8.30
2022-09-20T00:48:21.189Z,8.10
2022-09-20T00:51:29.711Z,8.00
2022-09-20T00:54:31.898Z,9.70
2022-09-20T00:57:34.665Z,7.90
2022-09-20T01:00:37.892Z,8.00
2022-09-20T01:03:42.056Z,7.70
2022-09-20T01:06:46.751Z,7.70
2022-09-20T01:09:49.061Z,7.70
2022-09-20T01:12:53.609Z,7.60
2022-09-20T01:15:57.002Z,7.50
2022-09-20T01:19:02.923Z,7.50
2022-09-20T01:22:13.872Z,7.30
2022-09-20T01:25:41.429Z,7.30
2022-09-20T01:28:46.688Z,7.20
2022-09-20T01:31:54.399Z,7.10
2022-09-20T01:35:01.051Z,7.20
2022-09-20T01:38:24.160Z,7.10
2022-09-20T01:41:44.468Z,7.00
2022-09-20T01:45:12.201Z,7.00
2022-09-20T01:48:18.940Z,6.80
2022-09-20T01:51:48.224Z,6.70
2022-09-20T01:55:17.877Z,6.90
2022-09-20T01:58:34.648Z,6.80
2022-09-20T02:01:45.791Z,6.80
2022-09-20T02:08:09.859Z,6.50
2022-09-20T02:11:21.471Z,6.50
2022-09-20T02:14:57.251Z,6.50
2022-09-20T02:18:04.904Z,6.50
2022-09-20T02:21:35.632Z,6.50
2022-09-20T02:24:44.272Z,6.50
2022-09-20T02:28:07.240Z,6.40
2022-09-20T02:31:27.079Z,6.30
2022-09-20T02:35:06.277Z,6.20
2022-09-20T02:41:52.679Z,6.30
2022-09-20T02:45:19.644Z,6.30
2022-09-20T02:48:29.784Z,6.40
2022-09-20T02:51:42.468Z,6.40
2022-09-20T02:54:53.565Z,6.50
2022-09-20T02:58:28.973Z,6.60
2022-09-20T03:01:58.747Z,6.70
2022-09-20T03:05:32.939Z,6.80
2022-09-20T03:09:12.344Z,7.00
2022-09-20T03:12:51.652Z,7.20
2022-09-20T03:16:37.481Z,7.20
2022-09-20T03:20:06.862Z,7.20
2022-09-20T03:23:27.390Z,7.20
2022-09-20T03:26:44.071Z,7.20
2022-09-20T03:30:22.619Z,7.10
2022-09-20T03:33:49.105Z,7.20
2022-09-20T03:37:06.051Z,7.10
2022-09-20T03:40:19.561Z,7.20
2022-09-20T03:43:56.244Z,7.20
2022-09-20T03:47:31.458Z,7.20
2022-09-20T03:50:54.061Z,7.20
2022-09-20T03:54:20.518Z,7.40
2022-09-20T03:58:08.106Z,7.30
2022-09-20T04:01:30.620Z,7.50
2022-09-20T04:04:56.911Z,7.60
2022-09-20T04:08:38.101Z,7.50
2022-09-20T04:12:01.613Z,7.70
2022-09-20T04:15:22.482Z,7.60
2022-09-20T04:18:41.604Z,9.90
2022-09-20T04:21:55.660Z,7.70
2022-09-20T04:25:14.488Z,7.70
2022-09-20T04:28:28.559Z,7.80
2022-09-20T04:31:45.427Z,7.70
2022-09-20T04:34:57.940Z,7.70
2022-09-20T04:38:02.848Z,7.90
2022-09-20T04:41:29.473Z,7.80
2022-09-20T04:44:55.993Z,7.90
2022-09-20T04:48:26.634Z,8.10
2022-09-20T04:52:02.304Z,8.20
2022-09-20T04:55:34.632Z,8.30
2022-09-20T04:58:39.211Z,8.30
2022-09-20T05:02:08.999Z,8.40
2022-09-20T05:05:35.696Z,8.50
2022-09-20T05:08:58.728Z,8.60
2022-09-20T05:12:24.976Z,8.60
2022-09-20T05:15:36.170Z,8.90
2022-09-20T05:18:53.095Z,9.00
2022-09-20T05:22:44.362Z,9.10
2022-09-20T05:25:50.396Z,9.00
2022-09-20T05:29:01.545Z,9.10
2022-09-20T05:32:36.833Z,9.20
2022-09-20T05:36:00.034Z,9.60
2022-09-20T05:39:41.425Z,9.90
2022-09-20T05:42:59.413Z,10.00
2022-09-20T05:46:48.723Z,9.90
2022-09-20T05:49:58.070Z,9.90
2022-09-20T05:53:30.172Z,10.00
2022-09-20T05:56:43.636Z,10.10
2022-09-20T06:00:13.117Z,10.20
2022-09-20T06:03:35.973Z,10.10
2022-09-20T06:06:56.331Z,10.20
2022-09-20T06:10:27.690Z,10.40
2022-09-20T06:13:53.409Z,10.80
2022-09-20T06:17:26.151Z,11.00
2022-09-20T06:20:48.874Z,11.20
2022-09-20T06:23:52.737Z,11.40
2022-09-20T06:26:56.873Z,11.30
2022-09-20T06:30:07.113Z,11.50
2022-09-20T06:33:17.565Z,11.50
2022-09-20T06:36:25.633Z,11.80
2022-09-20T06:39:50.869Z,11.90
2022-09-20T06:42:52.693Z,12.30
2022-09-20T06:45:54.541Z,12.50
2022-09-20T06:48:57.634Z,12.80
2022-09-20T06:51:59.498Z,13.00
2022-09-20T06:55:01.721Z,12.90
2022-09-20T06:58:03.960Z,12.60
2022-09-20T07:01:05.887Z,12.30
2022-09-20T07:04:08.031Z,12.20
2022-09-20T07:07:16.750Z,12.10
2022-09-20T07:10:19.092Z,12.00
2022-09-20T07:13:21.177Z,12.20
2022-09-20T07:16:23.143Z,12.20
2022-09-20T07:19:25.035Z,12.30
2022-09-20T07:22:27.709Z,12.20
2022-09-20T07:25:31.437Z,12.20
2022-09-20T07:28:34.940Z,12.30
2022-09-20T07:31:36.963Z,12.50
2022-09-20T07:34:38.854Z,12.60
2022-09-20T07:37:40.716Z,13.00
2022-09-20T07:40:43.194Z,12.90
2022-09-20T07:43:45.973Z,13.00
2022-09-20T07:46:52.834Z,13.30
2022-09-20T07:49:54.813Z,13.70
2022-09-20T07:52:56.914Z,14.00
2022-09-20T07:56:10.303Z,14.30
2022-09-20T07:59:13.299Z,14.20
2022-09-20T08:02:16.108Z,14.00
2022-09-20T08:05:17.980Z,13.70
2022-09-20T08:08:20.083Z,13.60
2022-09-20T08:11:27.842Z,13.40
2022-09-20T08:14:29.875Z,13.40
2022-09-20T08:17:31.740Z,13.60
2022-09-20T08:20:38.815Z,13.60
2022-09-20T08:23:42.834Z,13.30
2022-09-20T08:26:45.072Z,13.30
2022-09-20T08:29:46.948Z,13.20
2022-09-20T08:35:51.054Z,13.10
2022-09-20T08:42:26.990Z,13.20
2022-09-20T08:45:36.215Z,13.00
2022-09-20T08:48:38.098Z,13.40
2022-09-20T08:51:42.861Z,13.60
2022-09-20T08:54:44.832Z,13.90
2022-09-20T08:57:53.279Z,14.10
2022-09-20T09:00:55.557Z,14.40
2022-09-20T09:04:19.026Z,14.40
2022-09-20T09:07:22.340Z,14.40
2022-09-20T09:10:24.294Z,16.10
2022-09-20T09:13:34.489Z,18.30
2022-09-20T09:23:05.421Z,20.50
2022-09-20T09:29:18.030Z,21.40
2022-09-20T09:32:23.435Z,22.70
2022-09-20T09:35:29.649Z,22.10
2022-09-20T09:38:34.376Z,21.50
2022-09-20T09:41:36.306Z,21.40
2022-09-20T09:53:47.053Z,18.50
2022-09-20T10:03:18.292Z,18.20
2022-09-20T10:06:52.324Z,18.20
2022-09-20T10:13:20.993Z,18.50
2022-09-20T10:26:41.347Z,21.80
2022-09-20T10:30:13.883Z,22.00
2022-09-20T10:33:27.707Z,22.60
2022-09-20T10:36:46.345Z,22.40
2022-09-20T10:40:11.345Z,21.10
2022-09-20T10:43:34.377Z,21.40
2022-09-20T10:47:11.522Z,21.60
2022-09-20T10:56:46.509Z,20.70
2022-09-20T10:59:58.320Z,20.60
2022-09-20T11:03:15.390Z,20.20
2022-09-20T11:07:01.590Z,21.10
2022-09-20T11:10:23.808Z,21.10
2022-09-20T11:13:50.190Z,20.30
2022-09-20T11:16:59.046Z,19.30
2022-09-20T11:20:19.235Z,18.60
2022-09-20T11:23:46.012Z,19.20
2022-09-20T11:26:55.230Z,19.60
2022-09-20T11:30:14.458Z,19.30
2022-09-20T11:33:28.247Z,19.40
2022-09-20T11:36:43.171Z,19.30
2022-09-20T11:39:54.056Z,18.40
2022-09-20T11:43:00.063Z,18.10
2022-09-20T11:49:15.888Z,18.50
2022-09-20T11:55:41.899Z,18.70
2022-09-20T11:58:52.667Z,18.60
2022-09-20T12:01:57.864Z,17.80
2022-09-20T12:05:00.491Z,17.70
2022-09-20T12:08:08.463Z,17.50
2022-09-20T12:11:15.574Z,18.00
2022-09-20T12:14:25.050Z,18.00
2022-09-20T12:17:45.593Z,18.90
2022-09-20T12:21:06.849Z,20.10
2022-09-20T12:24:19.504Z,21.90
2022-09-20T12:27:21.239Z,21.90
2022-09-20T12:30:23.271Z,22.40
2022-09-20T12:33:58.128Z,20.00
2022-09-20T12:37:03.067Z,20.00
2022-09-20T12:40:14.953Z,19.50
2022-09-20T12:43:21.400Z,18.80
2022-09-20T12:46:33.656Z,18.60
2022-09-20T12:49:49.431Z,18.80
2022-09-20T12:52:56.314Z,19.00
2022-09-20T12:56:06.503Z,19.00
2022-09-20T12:59:23.177Z,19.90
2022-09-20T13:02:58.027Z,20.70
2022-09-20T13:06:05.911Z,20.10
2022-09-20T13:09:09.738Z,19.50
2022-09-20T13:15:19.089Z,20.60
2022-09-20T13:18:23.725Z,21.00
2022-09-20T13:21:26.601Z,20.80
2022-09-20T13:24:33.224Z,20.90
2022-09-20T13:27:39.089Z,21.60
2022-09-20T13:30:40.979Z,21.60
2022-09-20T13:33:42.885Z,22.20
2022-09-20T13:36:46.418Z,22.30
2022-09-20T13:39:54.470Z,21.60
2022-09-20T13:43:19.615Z,21.50
2022-09-20T13:46:29.865Z,22.00
2022-09-20T13:49:32.626Z,22.10
2022-09-20T13:52:44.140Z,22.40
2022-09-20T13:55:46.548Z,22.50
2022-09-20T13:58:51.247Z,22.90
2022-09-20T14:01:57.152Z,23.30
2022-09-20T14:05:06.722Z,23.30
2022-09-20T14:08:15.656Z,22.30
2022-09-20T14:11:26.896Z,21.10
2022-09-20T14:14:29.348Z,20.40
2022-09-20T14:17:32.981Z,19.80
2022-09-20T14:24:06.315Z,19.30
2022-09-20T14:30:31.109Z,18.40
2022-09-20T14:33:33.371Z,17.00
2022-09-20T14:36:35.324Z,16.30
2022-09-20T14:39:48.313Z,14.40
2022-09-20T14:42:59.014Z,13.20
2022-09-20T14:46:28.505Z,13.30
2022-09-20T14:49:33.285Z,13.50
2022-09-20T14:52:38.805Z,14.20
2022-09-20T14:55:58.811Z,15.40
2022-09-20T14:59:23.591Z,17.40
2022-09-20T15:02:25.978Z,17.40
2022-09-20T15:05:28.075Z,17.60
2022-09-20T15:08:30.161Z,17.40
2022-09-20T15:11:33.141Z,17.30
2022-09-20T15:17:40.117Z,16.70
2022-09-20T15:23:44.267Z,15.40
2022-09-20T15:26:46.143Z,14.90
2022-09-20T15:29:48.019Z,14.50
2022-09-20T15:32:49.865Z,14.00
2022-09-20T15:35:51.738Z,13.50
2022-09-20T15:38:54.030Z,13.00
2022-09-20T15:51:05.212Z,13.10
2022-09-20T15:54:07.594Z,13.10
2022-09-20T16:03:14.288Z,12.50
2022-09-20T16:09:19.206Z,11.80
2022-09-20T16:12:22.486Z,11.80
2022-09-20T16:15:24.409Z,11.70
2022-09-20T16:18:28.659Z,11.80
2022-09-20T16:21:30.568Z,11.90
2022-09-20T16:24:34.924Z,12.20
2022-09-20T16:27:36.834Z,12.20
2022-09-20T16:42:52.259Z,11.80
2022-09-20T16:46:00.805Z,11.40
2022-09-20T16:49:07.910Z,11.40
2022-09-20T17:10:24.547Z,10.50
2022-09-20T17:16:34.529Z,10.20
2022-09-20T17:25:40.967Z,9.90
2022-09-20T17:28:47.778Z,9.60
2022-09-20T17:31:55.158Z,9.60
2022-09-20T17:34:57.756Z,9.50
2022-09-20T17:41:04.751Z,9.30
2022-09-20T17:47:08.968Z,9.20
2022-09-20T17:50:10.842Z,9.20
2022-09-20T17:53:12.716Z,9.20
2022-09-20T17:56:15.077Z,9.20
2022-09-20T17:59:17.709Z,9.20
2022-09-20T18:11:41.952Z,9.10
2022-09-20T18:14:43.790Z,8.80
2022-09-20T18:20:48.221Z,8.60
2022-09-20T18:23:51.326Z,8.60
2022-09-20T18:29:55.437Z,8.60
2022-09-20T18:36:06.102Z,8.00
2022-09-20T18:39:08.591Z,7.90
2022-09-20T18:42:10.369Z,7.90
2022-09-20T18:48:14.525Z,7.70
2022-09-20T18:51:16.645Z,7.90
2022-09-20T18:57:21.108Z,7.90
2022-09-20T19:00:23.064Z,7.70
2022-09-20T19:03:32.602Z,7.80
2022-09-20T19:06:52.648Z,7.80
2022-09-20T19:13:15.644Z,7.80
2022-09-20T19:16:22.454Z,7.90
2022-09-20T19:19:58.625Z,7.80
2022-09-20T19:23:11.322Z,7.80
2022-09-20T19:26:27.614Z,7.60
2022-09-20T19:32:32.048Z,7.60
2022-09-20T19:35:37.849Z,7.60
2022-09-20T19:39:08.718Z,7.30
2022-09-20T19:42:43.450Z,7.30
2022-09-20T19:45:59.007Z,7.30
2022-09-20T19:49:13.711Z,7.20
2022-09-20T19:52:17.280Z,7.20
2022-09-20T19:55:19.455Z,7.10
2022-09-20T19:58:21.593Z,7.20
2022-09-20T20:01:25.707Z,7.10
2022-09-20T20:04:27.869Z,7.00
2022-09-20T20:07:46.591Z,6.80
2022-09-20T20:14:20.754Z,6.80
2022-09-20T20:17:28.269Z,6.70
2022-09-20T20:20:45.928Z,6.80
2022-09-20T20:23:56.944Z,6.90
2022-09-20T20:26:58.925Z,6.60
2022-09-20T20:33:03.050Z,6.30
2022-09-20T20:39:07.414Z,6.40
2022-09-20T20:45:11.736Z,6.20
2022-09-20T20:51:21.194Z,6.10
2022-09-20T20:54:23.127Z,6.30
2022-09-20T20:57:24.983Z,6.30
2022-09-20T21:03:29.435Z,6.30
2022-09-20T21:06:33.140Z,6.20
2022-09-20T21:09:34.993Z,6.20
2022-09-20T21:18:43.344Z,6.00
2022-09-20T21:21:46.752Z,6.00
2022-09-20T21:34:05.692Z,5.70
2022-09-20T21:37:07.544Z,5.50
2022-09-20T21:43:11.923Z,5.40
2022-09-20T21:46:16.486Z,5.50
2022-09-20T21:49:18.337Z,5.50
2022-09-20T21:52:20.248Z,5.40
2022-09-20T21:55:22.057Z,5.50
2022-09-20T21:58:24.043Z,5.50
2022-09-20T22:01:27.768Z,5.50
2022-09-20T22:04:29.695Z,5.70
2022-09-20T22:07:31.534Z,5.60
2022-09-20T22:10:33.412Z,5.50
2022-09-20T22:13:39.307Z,5.30
2022-09-20T22:16:43.225Z,5.10
2022-09-20T22:19:45.078Z,5.20
2022-09-20T22:22:46.909Z,5.20
2022-09-20T22:26:02.072Z,5.20
2022-09-20T22:29:04.689Z,5.20
2022-09-20T22:32:06.535Z,5.30
2022-09-20T22:35:08.781Z,7.00
2022-09-20T22:38:10.675Z,5.10
2022-09-20T22:41:14.356Z,5.50
2022-09-20T22:44:16.252Z,7.50
2022-09-20T22:47:18.145Z,5.00
2022-09-20T22:50:20.047Z,5.00
2022-09-20T22:53:21.893Z,7.70
2022-09-20T22:56:30.521Z,5.00
2022-09-20T22:59:32.385Z,5.20
2022-09-20T23:05:39.035Z,5.30
2022-09-20T23:08:40.948Z,5.00
2022-09-20T23:11:43.266Z,5.10
2022-09-20T23:14:45.000Z,4.80
2022-09-20T23:17:46.940Z,4.60
2022-09-20T23:23:54.729Z,4.70
2022-09-20T23:26:56.581Z,4.70
2022-09-20T23:29:58.431Z,4.60
2022-09-20T23:33:00.347Z,4.50
2022-09-20T23:36:09.489Z,4.40
2022-09-20T23:39:11.667Z,4.40
2022-09-20T23:42:13.506Z,4.50
2022-09-20T23:45:15.477Z,4.60
2022-09-20T23:48:17.327Z,5.30
2022-09-20T23:51:22.070Z,7.00
2022-09-20T23:57:26.555Z,4.70
